Time,TemperatureF,DewpointF,PressureIn,WindDirection,WindDirectionDegrees,WindSpeedMPH,WindSpeedGustMPH,Humidity,HourlyPrecipIn,Conditions,Clouds,dailyrainin,SoftwareType,DateUTC
2013-02-22 00:04:00,26.4,17.0,30.26,NE,49,0.0,12.0,67,0.00,,,0.00,weatherlink.com 1.10,2013-02-22 05:04:00,
2013-02-22 00:19:00,26.5,16.0,30.25,North,6,3.0,8.0,66,0.00,,,0.00,weatherlink.com 1.10,2013-02-22 05:19:00,
2013-02-22 00:34:00,26.7,17.0,30.25,WNW,296,4.0,10.0,67,0.00,,,0.00,weatherlink.com 1.10,2013-02-22 05:34:00,
2013-02-22 00:49:00,26.7,17.0,30.25,NE,44,2.0,8.0,67,0.00,,,0.00,weatherlink.com 1.10,2013-02-22 05:49:00,
2013-02-22 01:04:00,26.8,18.0,30.26,NE,46,0.0,11.0,68,0.00,,,0.00,weatherlink.com 1.10,2013-02-22 06:04:00,
2013-02-22 01:19:00,26.8,18.0,30.26,ENE,77,5.0,7.0,68,0.00,,,0.00,weatherlink.com 1.10,2013-02-22 06:19:00,
2013-02-22 01:34:00,26.7,18.0,30.27,West,280,0.0,10.0,69,0.00,,,0.00,weatherlink.com 1.10,2013-02-22 06:34:00,
2013-02-22 01:49:00,26.7,18.0,30.27,ENE,74,2.0,11.0,70,0.00,,,0.00,weatherlink.com 1.10,2013-02-22 06:49:00,
2013-02-22 02:04:00,26.9,18.0,30.25,WNW,288,1.0,9.0,70,0.00,,,0.00,weatherlink.com 1.10,2013-02-22 07:04:00,
2013-02-22 02:19:00,27.0,18.0,30.27,NE,34,1.0,9.0,70,0.00,,,0.00,weatherlink.com 1.10,2013-02-22 07:19:00,
2013-02-22 02:34:00,26.9,18.0,30.27,South,185,1.0,7.0,70,0.00,,,0.00,weatherlink.com 1.10,2013-02-22 07:34:00,
2013-02-22 02:49:00,26.8,18.0,30.27,NNE,32,2.0,10.0,70,0.00,,,0.00,weatherlink.com 1.10,2013-02-22 07:49:00,
2013-02-22 03:05:00,26.6,18.0,30.28,NW,325,2.0,12.0,71,0.00,,,0.00,weatherlink.com 1.10,2013-02-22 08:05:00,
2013-02-22 03:20:00,26.5,19.0,30.30,SSE,160,0.0,9.0,72,0.00,,,0.00,weatherlink.com 1.10,2013-02-22 08:20:00,
2013-02-22 03:35:00,26.3,19.0,30.31,East,94,3.0,7.0,73,0.00,,,0.00,weatherlink.com 1.10,2013-02-22 08:35:00,
2013-02-22 03:50:00,26.1,19.0,30.31,NNW,340,2.0,6.0,73,0.00,,,0.00,weatherlink.com 1.10,2013-02-22 08:50:00,
2013-02-22 04:05:00,26.1,19.0,30.30,NW,312,0.0,7.0,75,0.00,,,0.00,weatherlink.com 1.10,2013-02-22 09:05:00,
2013-02-22 04:20:00,26.1,19.0,30.30,NW,314,1.0,4.0,75,0.00,,,0.00,weatherlink.com 1.10,2013-02-22 09:20:00,
2013-02-22 04:35:00,26.3,19.0,30.32,NW,325,0.0,5.0,73,0.00,,,0.00,weatherlink.com 1.10,2013-02-22 09:35:00,
2013-02-22 04:50:00,26.2,19.0,30.32,NNE,13,4.0,7.0,74,0.00,,,0.00,weatherlink.com 1.10,2013-02-22 09:50:00,
2013-02-22 05:05:00,26.3,19.0,30.32,East,94,4.0,8.0,74,0.00,,,0.00,weatherlink.com 1.10,2013-02-22 10:05:00,
2013-02-22 05:20:00,26.2,19.0,30.32,NNE,32,2.0,6.0,74,0.00,,,0.00,weatherlink.com 1.10,2013-02-22 10:20:00,
2013-02-22 05:35:00,26.0,19.0,30.32,ESE,122,0.0,6.0,74,0.00,,,0.00,weatherlink.com 1.10,2013-02-22 10:35:00,
2013-02-22 05:50:00,25.9,19.0,30.34,ESE,123,0.0,7.0,74,0.00,,,0.00,weatherlink.com 1.10,2013-02-22 10:50:00,
2013-02-22 06:05:00,25.8,19.0,30.35,NNE,30,0.0,4.0,74,0.00,,,0.00,weatherlink.com 1.10,2013-02-22 11:05:00,
2013-02-22 06:20:00,25.8,19.0,30.36,NNW,334,0.0,4.0,75,0.00,,,0.00,weatherlink.com 1.10,2013-02-22 11:20:00,
2013-02-22 06:35:00,25.7,19.0,30.37,NE,43,4.0,5.0,75,0.00,,,0.00,weatherlink.com 1.10,2013-02-22 11:35:00,
2013-02-22 06:50:00,25.8,19.0,30.37,West,273,1.0,4.0,75,0.00,,,0.00,weatherlink.com 1.10,2013-02-22 11:50:00,
2013-02-22 07:05:00,26.1,19.0,30.38,NNE,19,4.0,4.0,75,0.00,,,0.00,weatherlink.com 1.10,2013-02-22 12:05:00,
2013-02-22 07:20:00,26.3,19.0,30.37,SE,124,0.0,6.0,75,0.00,,,0.00,weatherlink.com 1.10,2013-02-22 12:20:00,
2013-02-22 07:35:00,26.5,20.0,30.38,East,93,2.0,4.0,75,0.00,,,0.00,weatherlink.com 1.10,2013-02-22 12:35:00,
2013-02-22 07:50:00,27.0,20.0,30.38,NW,309,0.0,6.0,74,0.00,,,0.00,weatherlink.com 1.10,2013-02-22 12:50:00,
2013-02-22 08:05:00,27.7,20.0,30.38,NE,54,2.0,5.0,73,0.00,,,0.00,weatherlink.com 1.10,2013-02-22 13:05:00,
2013-02-22 08:20:00,28.2,20.0,30.39,NE,56,2.0,4.0,72,0.00,,,0.00,weatherlink.com 1.10,2013-02-22 13:20:00,
2013-02-22 08:35:00,28.6,20.0,30.39,West,274,0.0,4.0,71,0.00,,,0.00,weatherlink.com 1.10,2013-02-22 13:35:00,
2013-02-22 08:50:00,29.0,20.0,30.39,ENE,71,3.0,5.0,70,0.00,,,0.00,weatherlink.com 1.10,2013-02-22 13:50:00,
2013-02-22 09:05:00,29.2,21.0,30.39,ENE,68,1.0,7.0,70,0.00,,,0.00,weatherlink.com 1.10,2013-02-22 14:05:00,
2013-02-22 09:20:00,29.8,21.0,30.39,North,357,2.0,5.0,69,0.00,,,0.00,weatherlink.com 1.10,2013-02-22 14:20:00,
2013-02-22 09:35:00,30.6,21.0,30.38,ENE,78,2.0,6.0,67,0.00,,,0.00,weatherlink.com 1.10,2013-02-22 14:35:00,
2013-02-22 09:50:00,30.8,21.0,30.38,ENE,58,1.0,4.0,67,0.00,,,0.00,weatherlink.com 1.10,2013-02-22 14:50:00,
2013-02-22 10:05:00,31.8,22.0,30.38,SE,126,2.0,5.0,66,0.00,,,0.00,weatherlink.com 1.10,2013-02-22 15:05:00,
2013-02-22 10:20:00,33.6,22.0,30.38,NNW,345,2.0,5.0,63,0.00,,,0.00,weatherlink.com 1.10,2013-02-22 15:20:00,
2013-02-22 10:35:00,34.6,22.0,30.38,ESE,122,3.0,6.0,61,0.00,,,0.00,weatherlink.com 1.10,2013-02-22 15:35:00,
2013-02-22 10:50:00,35.6,22.0,30.37,WNW,298,2.0,6.0,59,0.00,,,0.00,weatherlink.com 1.10,2013-02-22 15:50:00,
2013-02-22 11:05:00,35.6,22.0,30.37,West,262,1.0,4.0,59,0.00,,,0.00,weatherlink.com 1.10,2013-02-22 16:05:00,
2013-02-22 11:20:00,36.3,23.0,30.37,SE,131,4.0,6.0,59,0.00,,,0.00,weatherlink.com 1.10,2013-02-22 16:20:00,
2013-02-22 11:35:00,36.2,22.0,30.37,ENE,77,2.0,9.0,57,0.00,,,0.00,weatherlink.com 1.10,2013-02-22 16:35:00,
2013-02-22 11:50:00,36.9,23.0,30.37,ENE,57,2.0,7.0,57,0.00,,,0.00,weatherlink.com 1.10,2013-02-22 16:50:00,
2013-02-22 12:05:00,36.8,23.0,30.36,NE,41,2.0,4.0,57,0.00,,,0.00,weatherlink.com 1.10,2013-02-22 17:05:00,
2013-02-22 12:20:00,37.3,23.0,30.35,SSE,150,1.0,3.0,57,0.00,,,0.00,weatherlink.com 1.10,2013-02-22 17:20:00,
2013-02-22 12:35:00,37.7,23.0,30.34,ENE,63,3.0,7.0,56,0.00,,,0.00,weatherlink.com 1.10,2013-02-22 17:35:00,
2013-02-22 12:50:00,38.2,24.0,30.34,NE,46,0.0,4.0,56,0.00,,,0.00,weatherlink.com 1.10,2013-02-22 17:50:00,
2013-02-22 13:05:00,38.8,24.0,30.34,West,269,2.0,4.0,56,0.00,,,0.00,weatherlink.com 1.10,2013-02-22 18:05:00,
2013-02-22 13:21:00,39.3,24.0,30.33,WSW,251,2.0,2.0,55,0.00,,,0.00,weatherlink.com 1.10,2013-02-22 18:21:00,
2013-02-22 13:36:00,39.6,24.0,30.32,East,94,1.0,5.0,54,0.00,,,0.00,weatherlink.com 1.10,2013-02-22 18:36:00,
2013-02-22 13:51:00,39.3,24.0,30.32,SE,124,0.0,4.0,55,0.00,,,0.00,weatherlink.com 1.10,2013-02-22 18:51:00,
2013-02-22 14:06:00,39.3,24.0,30.32,ESE,120,1.0,5.0,55,0.00,,,0.00,weatherlink.com 1.10,2013-02-22 19:06:00,
2013-02-22 14:21:00,39.8,25.0,30.31,South,169,0.0,3.0,56,0.00,,,0.00,weatherlink.com 1.10,2013-02-22 19:21:00,
2013-02-22 14:36:00,40.5,25.0,30.31,ENE,78,1.0,5.0,55,0.00,,,0.00,weatherlink.com 1.10,2013-02-22 19:36:00,
2013-02-22 14:51:00,39.6,25.0,30.31,SE,144,2.0,7.0,56,0.00,,,0.00,weatherlink.com 1.10,2013-02-22 19:51:00,
2013-02-22 15:06:00,38.7,25.0,30.31,ESE,120,3.0,5.0,58,0.00,,,0.00,weatherlink.com 1.10,2013-02-22 20:06:00,
2013-02-22 15:21:00,38.6,25.0,30.30,SW,222,3.0,5.0,59,0.00,,,0.00,weatherlink.com 1.10,2013-02-22 20:21:00,
2013-02-22 15:36:00,38.0,25.0,30.31,ESE,110,3.0,9.0,61,0.00,,,0.00,weatherlink.com 1.10,2013-02-22 20:36:00,
2013-02-22 15:51:00,37.9,25.0,30.31,SE,141,3.0,5.0,61,0.00,,,0.00,weatherlink.com 1.10,2013-02-22 20:51:00,
2013-02-22 16:06:00,37.5,26.0,30.32,SE,137,1.0,6.0,63,0.00,,,0.00,weatherlink.com 1.10,2013-02-22 21:06:00,
2013-02-22 16:21:00,37.0,26.0,30.31,ESE,110,1.0,6.0,65,0.00,,,0.00,weatherlink.com 1.10,2013-02-22 21:21:00,
2013-02-22 16:51:00,36.5,27.0,30.32,ESE,102,0.0,5.0,69,0.00,,,0.00,weatherlink.com 1.10,2013-02-22 21:51:00,
2013-02-22 17:06:00,36.3,27.0,30.32,ESE,120,2.0,5.0,70,0.00,,,0.00,weatherlink.com 1.10,2013-02-22 22:06:00,
2013-02-22 17:21:00,36.3,28.0,30.32,ESE,113,1.0,5.0,71,0.00,,,0.00,weatherlink.com 1.10,2013-02-22 22:21:00,
2013-02-22 17:36:00,36.3,28.0,30.33,ESE,115,0.0,3.0,72,0.00,,,0.00,weatherlink.com 1.10,2013-02-22 22:36:00,
2013-02-22 17:51:00,36.3,28.0,30.33,SSW,203,0.0,4.0,73,0.00,,,0.00,weatherlink.com 1.10,2013-02-22 22:51:00,
2013-02-22 18:06:00,36.3,29.0,30.33,SE,130,1.0,5.0,74,0.00,,,0.00,weatherlink.com 1.10,2013-02-22 23:06:00,
2013-02-22 18:21:00,36.3,29.0,30.33,ESE,111,1.0,3.0,75,0.00,,,0.00,weatherlink.com 1.10,2013-02-22 23:21:00,
2013-02-22 18:36:00,36.3,29.0,30.32,East,101,2.0,7.0,75,0.00,,,0.00,weatherlink.com 1.10,2013-02-22 23:36:00,
2013-02-22 18:51:00,36.2,29.0,30.31,ENE,64,2.0,6.0,76,0.00,,,0.00,weatherlink.com 1.10,2013-02-22 23:51:00,
2013-02-22 19:06:00,36.3,29.0,30.31,ESE,113,1.0,6.0,76,0.00,,,0.00,weatherlink.com 1.10,2013-02-23 00:06:00,
2013-02-22 19:21:00,36.3,29.0,30.32,ESE,123,2.0,5.0,76,0.00,,,0.00,weatherlink.com 1.10,2013-02-23 00:21:00,
2013-02-22 19:36:00,36.3,29.0,30.31,SE,143,2.0,4.0,76,0.00,,,0.00,weatherlink.com 1.10,2013-02-23 00:36:00,
2013-02-22 19:51:00,36.3,29.0,30.32,ESE,115,0.0,4.0,76,0.00,,,0.00,weatherlink.com 1.10,2013-02-23 00:51:00,
2013-02-22 20:06:00,36.3,29.0,30.32,SE,134,1.0,5.0,76,0.00,,,0.00,weatherlink.com 1.10,2013-02-23 01:06:00,
2013-02-22 20:21:00,36.4,30.0,30.32,SE,134,2.0,5.0,76,0.00,,,0.00,weatherlink.com 1.10,2013-02-23 01:21:00,
2013-02-22 20:36:00,36.3,30.0,30.31,SE,131,2.0,4.0,77,0.00,,,0.00,weatherlink.com 1.10,2013-02-23 01:36:00,
2013-02-22 20:51:00,36.4,30.0,30.31,ESE,114,0.0,6.0,77,0.00,,,0.00,weatherlink.com 1.10,2013-02-23 01:51:00,
2013-02-22 21:06:00,36.3,30.0,30.31,ESE,123,1.0,4.0,78,0.00,,,0.00,weatherlink.com 1.10,2013-02-23 02:06:00,
2013-02-22 21:21:00,36.4,30.0,30.31,SE,124,3.0,4.0,78,0.00,,,0.00,weatherlink.com 1.10,2013-02-23 02:21:00,
2013-02-22 21:36:00,36.5,30.0,30.30,ESE,120,1.0,5.0,78,0.00,,,0.00,weatherlink.com 1.10,2013-02-23 02:36:00,
2013-02-22 21:51:00,36.6,30.0,30.29,ESE,116,1.0,8.0,78,0.00,,,0.00,weatherlink.com 1.10,2013-02-23 02:51:00,
2013-02-22 22:06:00,36.7,31.0,30.29,ESE,113,1.0,6.0,79,0.00,,,0.00,weatherlink.com 1.10,2013-02-23 03:06:00,
2013-02-22 22:21:00,36.7,31.0,30.29,SE,127,1.0,5.0,79,0.00,,,0.00,weatherlink.com 1.10,2013-02-23 03:21:00,
2013-02-22 22:36:00,36.8,31.0,30.29,ESE,120,4.0,5.0,80,0.00,,,0.00,weatherlink.com 1.10,2013-02-23 03:36:00,
2013-02-22 22:51:00,36.9,31.0,30.28,ESE,116,1.0,4.0,80,0.00,,,0.00,weatherlink.com 1.10,2013-02-23 03:51:00,
2013-02-22 23:06:00,37.0,31.0,30.28,ESE,121,0.0,3.0,80,0.00,,,0.00,weatherlink.com 1.10,2013-02-23 04:06:00,
2013-02-22 23:21:00,37.2,32.0,30.28,ESE,112,0.0,3.0,80,0.00,,,0.00,weatherlink.com 1.10,2013-02-23 04:21:00,
2013-02-22 23:36:00,37.3,32.0,30.27,ESE,119,1.0,4.0,80,0.00,,,0.00,weatherlink.com 1.10,2013-02-23 04:36:00,
2013-02-22 23:51:00,37.3,32.0,30.27,SW,221,1.0,6.0,81,0.00,,,0.00,weatherlink.com 1.10,2013-02-23 04:51:00,